sensor_id;sensor_type;location;lat;lon;timestamp;temperature;humidity
3678;DHT22;1855;50.934;6.958;2023-02-07T00:01:22;0.20;99.90
3678;DHT22;1855;50.934;6.958;2023-02-07T00:03:50;0.20;99.90
3678;DHT22;1855;50.934;6.958;2023-02-07T00:06:20;0.20;99.90
3678;DHT22;1855;50.934;6.958;2023-02-07T00:08:48;0.10;99.90
3678;DHT22;1855;50.934;6.958;2023-02-07T00:11:16;0.10;99.90
3678;DHT22;1855;50.934;6.958;2023-02-07T00:13:48;0.10;99.90
3678;DHT22;1855;50.934;6.958;2023-02-07T00:16:15;0.10;99.90
3678;DHT22;1855;50.934;6.958;2023-02-07T00:18:41;0.10;99.90
3678;DHT22;1855;50.934;6.958;2023-02-07T00:21:11;0.10;99.90
3678;DHT22;1855;50.934;6.958;2023-02-07T00:23:38;0.10;99.90
3678;DHT22;1855;50.934;6.958;2023-02-07T00:26:07;0.00;99.90
3678;DHT22;1855;50.934;6.958;2023-02-07T00:28:34;0.00;99.90
3678;DHT22;1855;50.934;6.958;2023-02-07T00:31:04;0.10;99.90
3678;DHT22;1855;50.934;6.958;2023-02-07T00:33:31;0.10;99.90
3678;DHT22;1855;50.934;6.958;2023-02-07T00:35:59;0.20;99.90
3678;DHT22;1855;50.934;6.958;2023-02-07T00:38:27;0.20;99.90
3678;DHT22;1855;50.934;6.958;2023-02-07T00:40:54;0.20;99.90
3678;DHT22;1855;50.934;6.958;2023-02-07T00:43:21;0.20;99.90
3678;DHT22;1855;50.934;6.958;2023-02-07T00:45:47;0.10;99.90
3678;DHT22;1855;50.934;6.958;2023-02-07T00:48:16;0.10;99.90
3678;DHT22;1855;50.934;6.958;2023-02-07T00:50:42;0.00;99.90
3678;DHT22;1855;50.934;6.958;2023-02-07T00:53:09;0.00;99.90
3678;DHT22;1855;50.934;6.958;2023-02-07T00:55:36;-0.10;99.90
3678;DHT22;1855;50.934;6.958;2023-02-07T00:58:03;-0.10;99.90
3678;DHT22;1855;50.934;6.958;2023-02-07T01:00:30;-0.10;99.90
3678;DHT22;1855;50.934;6.958;2023-02-07T01:02:56;-0.10;99.90
3678;DHT22;1855;50.934;6.958;2023-02-07T01:05:24;0.00;99.90
3678;DHT22;1855;50.934;6.958;2023-02-07T01:07:51;-0.10;99.90
3678;DHT22;1855;50.934;6.958;2023-02-07T01:10:18;-0.10;99.90
3678;DHT22;1855;50.934;6.958;2023-02-07T01:12:45;-0.10;99.90
3678;DHT22;1855;50.934;6.958;2023-02-07T01:15:12;-0.10;99.90
3678;DHT22;1855;50.934;6.958;2023-02-07T01:17:39;-0.10;99.90
3678;DHT22;1855;50.934;6.958;2023-02-07T01:20:06;-0.10;99.90
3678;DHT22;1855;50.934;6.958;2023-02-07T01:22:35;-0.10;99.90
3678;DHT22;1855;50.934;6.958;2023-02-07T01:25:03;-0.20;99.90
3678;DHT22;1855;50.934;6.958;2023-02-07T01:27:30;-0.30;99.90
3678;DHT22;1855;50.934;6.958;2023-02-07T01:29:57;-0.40;99.90
3678;DHT22;1855;50.934;6.958;2023-02-07T01:32:24;-0.40;99.90
3678;DHT22;1855;50.934;6.958;2023-02-07T01:34:50;-0.30;99.90
3678;DHT22;1855;50.934;6.958;2023-02-07T01:37:17;-0.20;99.90
3678;DHT22;1855;50.934;6.958;2023-02-07T01:39:46;-0.20;99.90
3678;DHT22;1855;50.934;6.958;2023-02-07T01:42:13;-0.30;99.90
3678;DHT22;1855;50.934;6.958;2023-02-07T01:45:03;-0.30;99.90
3678;DHT22;1855;50.934;6.958;2023-02-07T01:47:31;-0.40;99.90
3678;DHT22;1855;50.934;6.958;2023-02-07T01:49:58;-0.50;99.90
3678;DHT22;1855;50.934;6.958;2023-02-07T01:52:27;-0.50;99.90
3678;DHT22;1855;50.934;6.958;2023-02-07T01:55:00;-0.60;99.90
3678;DHT22;1855;50.934;6.958;2023-02-07T01:57:27;-0.70;99.90
3678;DHT22;1855;50.934;6.958;2023-02-07T01:59:55;-0.80;99.90
3678;DHT22;1855;50.934;6.958;2023-02-07T02:02:23;-0.90;99.90
3678;DHT22;1855;50.934;6.958;2023-02-07T02:04:53;-1.00;99.90
3678;DHT22;1855;50.934;6.958;2023-02-07T02:07:21;-1.10;99.90
3678;DHT22;1855;50.934;6.958;2023-02-07T02:09:48;-1.10;99.90
3678;DHT22;1855;50.934;6.958;2023-02-07T02:12:57;-1.10;99.90
3678;DHT22;1855;50.934;6.958;2023-02-07T02:15:31;-1.20;99.90
3678;DHT22;1855;50.934;6.958;2023-02-07T02:18:12;-1.20;99.90
3678;DHT22;1855;50.934;6.958;2023-02-07T02:21:10;-1.20;99.90
3678;DHT22;1855;50.934;6.958;2023-02-07T02:23:56;-1.20;99.90
3678;DHT22;1855;50.934;6.958;2023-02-07T02:26:56;-1.10;99.90
3678;DHT22;1855;50.934;6.958;2023-02-07T02:29:49;-1.10;99.90
3678;DHT22;1855;50.934;6.958;2023-02-07T02:35:20;-1.00;99.90
3678;DHT22;1855;50.934;6.958;2023-02-07T02:37:53;-1.10;99.90
3678;DHT22;1855;50.934;6.958;2023-02-07T02:40:28;-1.10;99.90
3678;DHT22;1855;50.934;6.958;2023-02-07T02:43:04;-1.20;99.90
3678;DHT22;1855;50.934;6.958;2023-02-07T02:45:37;-1.20;99.90
3678;DHT22;1855;50.934;6.958;2023-02-07T02:48:07;-1.30;99.90
3678;DHT22;1855;50.934;6.958;2023-02-07T02:50:36;-1.30;99.90
3678;DHT22;1855;50.934;6.958;2023-02-07T02:53:03;-1.20;99.90
3678;DHT22;1855;50.934;6.958;2023-02-07T02:55:48;-1.30;99.90
3678;DHT22;1855;50.934;6.958;2023-02-07T02:58:25;-1.30;99.90
3678;DHT22;1855;50.934;6.958;2023-02-07T03:01:05;-1.20;99.90
3678;DHT22;1855;50.934;6.958;2023-02-07T03:03:49;-1.20;99.90
3678;DHT22;1855;50.934;6.958;2023-02-07T03:06:31;-1.20;99.90
3678;DHT22;1855;50.934;6.958;2023-02-07T03:09:05;-1.20;99.90
3678;DHT22;1855;50.934;6.958;2023-02-07T03:11:38;-1.30;99.90
3678;DHT22;1855;50.934;6.958;2023-02-07T03:14:11;-1.30;99.90
3678;DHT22;1855;50.934;6.958;2023-02-07T03:16:47;-1.40;99.90
3678;DHT22;1855;50.934;6.958;2023-02-07T03:19:20;-1.40;99.90
3678;DHT22;1855;50.934;6.958;2023-02-07T03:21:51;-1.40;99.90
3678;DHT22;1855;50.934;6.958;2023-02-07T03:24:22;-1.40;99.90
3678;DHT22;1855;50.934;6.958;2023-02-07T03:26:52;-1.50;99.90
3678;DHT22;1855;50.934;6.958;2023-02-07T03:29:23;-1.40;99.90
3678;DHT22;1855;50.934;6.958;2023-02-07T03:31:52;-1.50;99.90
3678;DHT22;1855;50.934;6.958;2023-02-07T03:34:23;-1.50;99.90
3678;DHT22;1855;50.934;6.958;2023-02-07T03:36:54;-1.60;99.90
3678;DHT22;1855;50.934;6.958;2023-02-07T03:39:23;-1.60;99.90
3678;DHT22;1855;50.934;6.958;2023-02-07T03:41:53;-1.70;99.90
3678;DHT22;1855;50.934;6.958;2023-02-07T03:44:23;-1.90;99.90
3678;DHT22;1855;50.934;6.958;2023-02-07T03:46:51;-1.90;99.90
3678;DHT22;1855;50.934;6.958;2023-02-07T03:49:20;-1.90;99.90
3678;DHT22;1855;50.934;6.958;2023-02-07T03:51:47;-1.80;99.90
3678;DHT22;1855;50.934;6.958;2023-02-07T03:54:14;-1.80;99.90
3678;DHT22;1855;50.934;6.958;2023-02-07T03:56:41;-1.80;99.90
3678;DHT22;1855;50.934;6.958;2023-02-07T03:59:08;-1.80;99.90
3678;DHT22;1855;50.934;6.958;2023-02-07T04:01:35;-1.90;99.90
3678;DHT22;1855;50.934;6.958;2023-02-07T04:04:06;-1.90;99.90
3678;DHT22;1855;50.934;6.958;2023-02-07T04:06:34;-2.00;99.90
3678;DHT22;1855;50.934;6.958;2023-02-07T04:09:01;-2.00;99.90
3678;DHT22;1855;50.934;6.958;2023-02-07T04:11:28;-2.00;99.90
3678;DHT22;1855;50.934;6.958;2023-02-07T04:13:55;-2.00;99.90
3678;DHT22;1855;50.934;6.958;2023-02-07T04:16:22;-2.00;99.90
3678;DHT22;1855;50.934;6.958;2023-02-07T04:18:48;-2.00;99.90
3678;DHT22;1855;50.934;6.958;2023-02-07T04:21:15;-2.00;99.90
3678;DHT22;1855;50.934;6.958;2023-02-07T04:23:43;-2.00;99.90
3678;DHT22;1855;50.934;6.958;2023-02-07T04:26:10;-1.80;99.90
3678;DHT22;1855;50.934;6.958;2023-02-07T04:28:37;-1.80;99.90
3678;DHT22;1855;50.934;6.958;2023-02-07T04:31:04;-1.70;99.90
3678;DHT22;1855;50.934;6.958;2023-02-07T04:33:30;-1.70;99.90
3678;DHT22;1855;50.934;6.958;2023-02-07T04:35:59;-1.80;99.90
3678;DHT22;1855;50.934;6.958;2023-02-07T04:38:27;-1.90;99.90
3678;DHT22;1855;50.934;6.958;2023-02-07T04:40:58;-1.90;99.90
3678;DHT22;1855;50.934;6.958;2023-02-07T04:43:28;-2.00;99.90
3678;DHT22;1855;50.934;6.958;2023-02-07T04:45:55;-1.90;99.90
3678;DHT22;1855;50.934;6.958;2023-02-07T04:48:21;-1.90;99.90
3678;DHT22;1855;50.934;6.958;2023-02-07T04:50:48;-1.90;99.90
3678;DHT22;1855;50.934;6.958;2023-02-07T04:53:15;-2.00;99.90
3678;DHT22;1855;50.934;6.958;2023-02-07T04:55:42;-2.00;99.90
3678;DHT22;1855;50.934;6.958;2023-02-07T04:58:10;-2.00;99.90
3678;DHT22;1855;50.934;6.958;2023-02-07T05:00:37;-2.10;99.90
3678;DHT22;1855;50.934;6.958;2023-02-07T05:03:03;-2.00;99.90
3678;DHT22;1855;50.934;6.958;2023-02-07T05:05:30;-1.90;99.90
3678;DHT22;1855;50.934;6.958;2023-02-07T05:07:57;-1.90;99.90
3678;DHT22;1855;50.934;6.958;2023-02-07T05:10:23;-1.80;99.90
3678;DHT22;1855;50.934;6.958;2023-02-07T05:12:50;-1.80;99.90
3678;DHT22;1855;50.934;6.958;2023-02-07T05:15:18;-1.70;99.90
3678;DHT22;1855;50.934;6.958;2023-02-07T05:17:45;-1.70;99.90
3678;DHT22;1855;50.934;6.958;2023-02-07T05:20:14;-1.70;99.90
3678;DHT22;1855;50.934;6.958;2023-02-07T05:22:41;-1.60;99.90
3678;DHT22;1855;50.934;6.958;2023-02-07T05:25:07;-1.60;99.90
3678;DHT22;1855;50.934;6.958;2023-02-07T05:27:34;-1.70;99.90
3678;DHT22;1855;50.934;6.958;2023-02-07T05:30:01;-1.80;99.90
3678;DHT22;1855;50.934;6.958;2023-02-07T05:32:30;-1.80;99.90
3678;DHT22;1855;50.934;6.958;2023-02-07T05:35:14;-1.80;99.90
3678;DHT22;1855;50.934;6.958;2023-02-07T05:37:41;-1.70;99.90
3678;DHT22;1855;50.934;6.958;2023-02-07T05:40:09;-1.70;99.90
3678;DHT22;1855;50.934;6.958;2023-02-07T05:42:37;-1.80;99.90
3678;DHT22;1855;50.934;6.958;2023-02-07T05:45:05;-1.80;99.90
3678;DHT22;1855;50.934;6.958;2023-02-07T05:47:34;-1.80;99.90
3678;DHT22;1855;50.934;6.958;2023-02-07T05:50:03;-1.80;99.90
3678;DHT22;1855;50.934;6.958;2023-02-07T05:52:32;-1.90;99.90
3678;DHT22;1855;50.934;6.958;2023-02-07T05:54:59;-1.90;99.90
3678;DHT22;1855;50.934;6.958;2023-02-07T05:57:25;-1.90;99.90
3678;DHT22;1855;50.934;6.958;2023-02-07T05:59:52;-2.00;99.90
3678;DHT22;1855;50.934;6.958;2023-02-07T06:02:20;-1.90;99.90
3678;DHT22;1855;50.934;6.958;2023-02-07T06:04:48;-1.90;99.90
3678;DHT22;1855;50.934;6.958;2023-02-07T06:07:15;-2.00;99.90
3678;DHT22;1855;50.934;6.958;2023-02-07T06:09:42;-1.90;99.90
3678;DHT22;1855;50.934;6.958;2023-02-07T06:12:09;-1.80;99.90
3678;DHT22;1855;50.934;6.958;2023-02-07T06:14:35;-1.80;99.90
3678;DHT22;1855;50.934;6.958;2023-02-07T06:17:02;-1.80;99.90
3678;DHT22;1855;50.934;6.958;2023-02-07T06:19:29;-1.80;99.90
3678;DHT22;1855;50.934;6.958;2023-02-07T06:21:57;-1.70;99.90
3678;DHT22;1855;50.934;6.958;2023-02-07T06:24:24;-1.80;99.90
3678;DHT22;1855;50.934;6.958;2023-02-07T06:26:51;-1.90;99.90
3678;DHT22;1855;50.934;6.958;2023-02-07T06:29:18;-1.90;99.90
3678;DHT22;1855;50.934;6.958;2023-02-07T06:31:44;-1.90;99.90
3678;DHT22;1855;50.934;6.958;2023-02-07T06:34:11;-1.80;99.90
3678;DHT22;1855;50.934;6.958;2023-02-07T06:36:38;-1.80;99.90
3678;DHT22;1855;50.934;6.958;2023-02-07T06:39:06;-1.60;99.90
3678;DHT22;1855;50.934;6.958;2023-02-07T06:41:34;-1.50;99.90
3678;DHT22;1855;50.934;6.958;2023-02-07T06:44:01;-1.50;99.90
3678;DHT22;1855;50.934;6.958;2023-02-07T06:46:28;-1.60;99.90
3678;DHT22;1855;50.934;6.958;2023-02-07T06:48:55;-1.60;99.90
3678;DHT22;1855;50.934;6.958;2023-02-07T06:51:22;-1.60;99.90
3678;DHT22;1855;50.934;6.958;2023-02-07T06:53:49;-1.60;99.90
3678;DHT22;1855;50.934;6.958;2023-02-07T06:56:17;-1.60;99.90
3678;DHT22;1855;50.934;6.958;2023-02-07T06:58:44;-1.60;99.90
3678;DHT22;1855;50.934;6.958;2023-02-07T07:01:10;-1.60;99.90
3678;DHT22;1855;50.934;6.958;2023-02-07T07:03:37;-1.60;99.90
3678;DHT22;1855;50.934;6.958;2023-02-07T07:06:04;-1.70;99.90
3678;DHT22;1855;50.934;6.958;2023-02-07T07:08:31;-1.60;99.90
3678;DHT22;1855;50.934;6.958;2023-02-07T07:10:58;-1.50;99.90
3678;DHT22;1855;50.934;6.958;2023-02-07T07:13:26;-1.50;99.90
3678;DHT22;1855;50.934;6.958;2023-02-07T07:15:53;-1.40;99.90
3678;DHT22;1855;50.934;6.958;2023-02-07T07:18:20;-1.30;99.90
3678;DHT22;1855;50.934;6.958;2023-02-07T07:20:51;-1.30;99.90
3678;DHT22;1855;50.934;6.958;2023-02-07T07:23:18;-1.20;99.90
3678;DHT22;1855;50.934;6.958;2023-02-07T07:25:45;-1.20;99.90
3678;DHT22;1855;50.934;6.958;2023-02-07T07:28:12;-1.10;99.90
3678;DHT22;1855;50.934;6.958;2023-02-07T07:30:40;-1.20;99.90
3678;DHT22;1855;50.934;6.958;2023-02-07T07:33:06;-1.20;99.90
3678;DHT22;1855;50.934;6.958;2023-02-07T07:35:33;-1.20;99.90
3678;DHT22;1855;50.934;6.958;2023-02-07T07:38:00;-1.10;99.90
3678;DHT22;1855;50.934;6.958;2023-02-07T07:40:27;-1.10;99.90
3678;DHT22;1855;50.934;6.958;2023-02-07T07:42:54;-1.00;99.90
3678;DHT22;1855;50.934;6.958;2023-02-07T07:45:20;-0.90;99.90
3678;DHT22;1855;50.934;6.958;2023-02-07T07:47:49;-0.90;99.90
3678;DHT22;1855;50.934;6.958;2023-02-07T07:50:15;-0.80;99.90
3678;DHT22;1855;50.934;6.958;2023-02-07T07:52:42;-0.80;99.90
3678;DHT22;1855;50.934;6.958;2023-02-07T07:55:09;-0.80;99.90
3678;DHT22;1855;50.934;6.958;2023-02-07T07:57:36;-0.80;99.90
3678;DHT22;1855;50.934;6.958;2023-02-07T08:00:03;-0.70;99.90
3678;DHT22;1855;50.934;6.958;2023-02-07T08:02:30;-0.70;99.90
3678;DHT22;1855;50.934;6.958;2023-02-07T08:04:59;-0.70;99.90
3678;DHT22;1855;50.934;6.958;2023-02-07T08:07:25;-0.60;99.90
3678;DHT22;1855;50.934;6.958;2023-02-07T08:09:52;-0.60;99.90
3678;DHT22;1855;50.934;6.958;2023-02-07T08:12:19;-0.60;99.90
3678;DHT22;1855;50.934;6.958;2023-02-07T08:14:45;-0.60;99.90
3678;DHT22;1855;50.934;6.958;2023-02-07T08:17:12;-0.50;99.90
3678;DHT22;1855;50.934;6.958;2023-02-07T08:19:39;-0.40;99.90
3678;DHT22;1855;50.934;6.958;2023-02-07T08:22:07;-0.30;99.90
3678;DHT22;1855;50.934;6.958;2023-02-07T08:24:34;-0.10;99.90
3678;DHT22;1855;50.934;6.958;2023-02-07T08:27:01;0.10;99.90
3678;DHT22;1855;50.934;6.958;2023-02-07T08:29:28;0.30;99.90
3678;DHT22;1855;50.934;6.958;2023-02-07T08:31:55;0.50;99.90
3678;DHT22;1855;50.934;6.958;2023-02-07T08:34:22;0.80;99.40
3678;DHT22;1855;50.934;6.958;2023-02-07T08:36:50;0.90;99.00
3678;DHT22;1855;50.934;6.958;2023-02-07T08:39:19;1.10;98.50
3678;DHT22;1855;50.934;6.958;2023-02-07T08:41:46;1.30;97.00
3678;DHT22;1855;50.934;6.958;2023-02-07T08:44:13;1.50;97.00
3678;DHT22;1855;50.934;6.958;2023-02-07T08:46:40;1.60;96.40
3678;DHT22;1855;50.934;6.958;2023-02-07T08:49:07;1.70;95.60
3678;DHT22;1855;50.934;6.958;2023-02-07T08:51:34;1.90;95.00
3678;DHT22;1855;50.934;6.958;2023-02-07T08:54:00;2.00;95.50
3678;DHT22;1855;50.934;6.958;2023-02-07T08:56:28;2.20;95.20
3678;DHT22;1855;50.934;6.958;2023-02-07T08:58:55;2.30;93.80
3678;DHT22;1855;50.934;6.958;2023-02-07T09:01:22;2.40;93.40
3678;DHT22;1855;50.934;6.958;2023-02-07T09:03:49;2.50;93.10
3678;DHT22;1855;50.934;6.958;2023-02-07T09:06:16;2.60;92.80
3678;DHT22;1855;50.934;6.958;2023-02-07T09:08:42;2.80;92.60
3678;DHT22;1855;50.934;6.958;2023-02-07T09:11:09;3.00;91.30
3678;DHT22;1855;50.934;6.958;2023-02-07T09:13:37;3.10;91.20
3678;DHT22;1855;50.934;6.958;2023-02-07T09:16:04;3.10;91.20
3678;DHT22;1855;50.934;6.958;2023-02-07T09:18:31;3.30;90.90
3678;DHT22;1855;50.934;6.958;2023-02-07T09:20:59;3.30;86.80
3678;DHT22;1855;50.934;6.958;2023-02-07T09:23:26;3.30;88.40
3678;DHT22;1855;50.934;6.958;2023-02-07T09:25:52;3.40;90.00
3678;DHT22;1855;50.934;6.958;2023-02-07T09:28:20;3.60;88.20
3678;DHT22;1855;50.934;6.958;2023-02-07T09:30:49;3.80;88.30
3678;DHT22;1855;50.934;6.958;2023-02-07T09:33:16;3.90;84.90
3678;DHT22;1855;50.934;6.958;2023-02-07T09:35:43;4.00;83.60
3678;DHT22;1855;50.934;6.958;2023-02-07T09:38:12;3.90;82.30
3678;DHT22;1855;50.934;6.958;2023-02-07T09:40:40;3.70;83.40
3678;DHT22;1855;50.934;6.958;2023-02-07T09:43:16;3.70;83.20
3678;DHT22;1855;50.934;6.958;2023-02-07T09:45:54;3.70;83.60
3678;DHT22;1855;50.934;6.958;2023-02-07T09:48:23;3.80;81.40
3678;DHT22;1855;50.934;6.958;2023-02-07T09:50:53;4.00;82.30
3678;DHT22;1855;50.934;6.958;2023-02-07T09:53:25;4.00;80.30
3678;DHT22;1855;50.934;6.958;2023-02-07T09:55:56;4.10;80.30
3678;DHT22;1855;50.934;6.958;2023-02-07T09:58:31;4.20;78.70
3678;DHT22;1855;50.934;6.958;2023-02-07T10:01:05;4.30;77.60
3678;DHT22;1855;50.934;6.958;2023-02-07T10:03:35;4.40;77.50
3678;DHT22;1855;50.934;6.958;2023-02-07T10:06:05;4.60;76.60
3678;DHT22;1855;50.934;6.958;2023-02-07T10:08:34;4.70;74.00
3678;DHT22;1855;50.934;6.958;2023-02-07T10:11:09;4.70;75.00
3678;DHT22;1855;50.934;6.958;2023-02-07T10:13:54;5.00;74.40
3678;DHT22;1855;50.934;6.958;2023-02-07T10:16:42;5.20;73.10
3678;DHT22;1855;50.934;6.958;2023-02-07T10:19:20;5.30;69.10
3678;DHT22;1855;50.934;6.958;2023-02-07T10:21:59;5.30;69.60
3678;DHT22;1855;50.934;6.958;2023-02-07T10:24:46;5.40;69.60
3678;DHT22;1855;50.934;6.958;2023-02-07T10:27:22;5.60;67.80
3678;DHT22;1855;50.934;6.958;2023-02-07T10:29:54;5.80;68.10
3678;DHT22;1855;50.934;6.958;2023-02-07T10:32:25;6.10;67.20
3678;DHT22;1855;50.934;6.958;2023-02-07T10:34:54;6.20;62.90
3678;DHT22;1855;50.934;6.958;2023-02-07T10:37:23;6.30;61.40
3678;DHT22;1855;50.934;6.958;2023-02-07T10:39:56;6.40;59.10
3678;DHT22;1855;50.934;6.958;2023-02-07T10:42:24;6.30;59.90
3678;DHT22;1855;50.934;6.958;2023-02-07T10:44:52;6.50;61.00
3678;DHT22;1855;50.934;6.958;2023-02-07T10:47:19;6.20;59.70
3678;DHT22;1855;50.934;6.958;2023-02-07T10:49:50;6.20;60.50
3678;DHT22;1855;50.934;6.958;2023-02-07T10:52:30;6.30;60.90
3678;DHT22;1855;50.934;6.958;2023-02-07T10:55:01;6.40;59.10
3678;DHT22;1855;50.934;6.958;2023-02-07T10:57:29;6.50;58.50
3678;DHT22;1855;50.934;6.958;2023-02-07T10:59:59;6.50;59.10
3678;DHT22;1855;50.934;6.958;2023-02-07T11:02:43;6.70;59.40
3678;DHT22;1855;50.934;6.958;2023-02-07T11:05:36;6.80;56.90
3678;DHT22;1855;50.934;6.958;2023-02-07T11:08:05;7.30;58.50
3678;DHT22;1855;50.934;6.958;2023-02-07T11:10:35;7.70;56.90
3678;DHT22;1855;50.934;6.958;2023-02-07T11:13:03;8.10;55.10
3678;DHT22;1855;50.934;6.958;2023-02-07T11:15:38;8.50;54.40
3678;DHT22;1855;50.934;6.958;2023-02-07T11:18:25;8.80;52.50
3678;DHT22;1855;50.934;6.958;2023-02-07T11:20:54;9.00;51.20
3678;DHT22;1855;50.934;6.958;2023-02-07T11:23:22;9.00;51.30
3678;DHT22;1855;50.934;6.958;2023-02-07T11:25:53;9.20;51.90
3678;DHT22;1855;50.934;6.958;2023-02-07T11:28:22;9.40;49.90
3678;DHT22;1855;50.934;6.958;2023-02-07T11:30:52;9.60;49.70
3678;DHT22;1855;50.934;6.958;2023-02-07T11:33:25;9.90;48.50
3678;DHT22;1855;50.934;6.958;2023-02-07T11:36:12;10.10;47.60
3678;DHT22;1855;50.934;6.958;2023-02-07T11:38:41;9.90;46.40
3678;DHT22;1855;50.934;6.958;2023-02-07T11:41:19;9.40;46.20
3678;DHT22;1855;50.934;6.958;2023-02-07T11:43:54;9.50;46.10
3678;DHT22;1855;50.934;6.958;2023-02-07T11:46:22;9.60;45.60
3678;DHT22;1855;50.934;6.958;2023-02-07T11:48:53;9.40;45.30
3678;DHT22;1855;50.934;6.958;2023-02-07T11:51:23;9.40;45.60
3678;DHT22;1855;50.934;6.958;2023-02-07T11:53:54;9.90;45.80
3678;DHT22;1855;50.934;6.958;2023-02-07T11:56:23;10.10;44.00
3678;DHT22;1855;50.934;6.958;2023-02-07T11:58:50;10.10;43.30
3678;DHT22;1855;50.934;6.958;2023-02-07T12:01:22;10.20;43.20
3678;DHT22;1855;50.934;6.958;2023-02-07T12:03:53;10.80;43.10
3678;DHT22;1855;50.934;6.958;2023-02-07T12:06:30;11.20;42.10
3678;DHT22;1855;50.934;6.958;2023-02-07T12:08:59;11.50;41.40
3678;DHT22;1855;50.934;6.958;2023-02-07T12:11:31;11.60;40.60
3678;DHT22;1855;50.934;6.958;2023-02-07T12:14:04;11.90;39.20
3678;DHT22;1855;50.934;6.958;2023-02-07T12:16:36;12.50;38.50
3678;DHT22;1855;50.934;6.958;2023-02-07T12:19:08;13.00;37.30
3678;DHT22;1855;50.934;6.958;2023-02-07T12:21:50;13.10;36.50
3678;DHT22;1855;50.934;6.958;2023-02-07T12:24:21;13.80;36.20
3678;DHT22;1855;50.934;6.958;2023-02-07T12:26:52;13.90;35.40
3678;DHT22;1855;50.934;6.958;2023-02-07T12:29:28;14.00;34.60
3678;DHT22;1855;50.934;6.958;2023-02-07T12:32:01;15.40;34.40
3678;DHT22;1855;50.934;6.958;2023-02-07T12:34:32;15.60;33.00
3678;DHT22;1855;50.934;6.958;2023-02-07T12:37:11;15.60;33.00
3678;DHT22;1855;50.934;6.958;2023-02-07T12:39:43;16.60;31.40
3678;DHT22;1855;50.934;6.958;2023-02-07T12:42:22;17.80;31.30
3678;DHT22;1855;50.934;6.958;2023-02-07T12:44:53;18.80;29.40
3678;DHT22;1855;50.934;6.958;2023-02-07T12:47:26;20.10;28.90
3678;DHT22;1855;50.934;6.958;2023-02-07T12:50:07;20.60;26.80
3678;DHT22;1855;50.934;6.958;2023-02-07T12:52:44;20.80;26.00
3678;DHT22;1855;50.934;6.958;2023-02-07T12:55:23;19.60;26.80
3678;DHT22;1855;50.934;6.958;2023-02-07T12:57:58;19.60;27.00
3678;DHT22;1855;50.934;6.958;2023-02-07T13:00:31;19.90;26.80
3678;DHT22;1855;50.934;6.958;2023-02-07T13:03:15;21.00;26.10
3678;DHT22;1855;50.934;6.958;2023-02-07T13:06:07;20.50;25.20
3678;DHT22;1855;50.934;6.958;2023-02-07T13:08:46;21.00;25.80
3678;DHT22;1855;50.934;6.958;2023-02-07T13:11:23;21.60;24.70
3678;DHT22;1855;50.934;6.958;2023-02-07T13:14:01;22.40;24.10
3678;DHT22;1855;50.934;6.958;2023-02-07T13:16:38;22.20;24.30
3678;DHT22;1855;50.934;6.958;2023-02-07T13:19:12;21.30;24.30
3678;DHT22;1855;50.934;6.958;2023-02-07T13:21:43;21.20;24.30
3678;DHT22;1855;50.934;6.958;2023-02-07T13:24:17;21.40;24.10
3678;DHT22;1855;50.934;6.958;2023-02-07T13:26:49;21.80;23.80
3678;DHT22;1855;50.934;6.958;2023-02-07T13:29:18;22.20;23.70
3678;DHT22;1855;50.934;6.958;2023-02-07T13:31:49;21.70;23.80
3678;DHT22;1855;50.934;6.958;2023-02-07T13:34:18;21.70;24.20
3678;DHT22;1855;50.934;6.958;2023-02-07T13:36:48;22.10;23.20
3678;DHT22;1855;50.934;6.958;2023-02-07T13:39:37;22.20;23.30
3678;DHT22;1855;50.934;6.958;2023-02-07T13:42:14;22.80;22.70
3678;DHT22;1855;50.934;6.958;2023-02-07T13:44:50;22.10;23.30
3678;DHT22;1855;50.934;6.958;2023-02-07T13:47:40;22.90;23.10
3678;DHT22;1855;50.934;6.958;2023-02-07T13:50:16;22.80;22.70
3678;DHT22;1855;50.934;6.958;2023-02-07T13:52:49;23.10;22.60
3678;DHT22;1855;50.934;6.958;2023-02-07T13:55:26;21.80;23.00
3678;DHT22;1855;50.934;6.958;2023-02-07T13:57:56;21.30;24.00
3678;DHT22;1855;50.934;6.958;2023-02-07T14:01:07;22.00;23.30
3678;DHT22;1855;50.934;6.958;2023-02-07T14:03:35;22.50;23.30
3678;DHT22;1855;50.934;6.958;2023-02-07T14:06:19;22.60;22.60
3678;DHT22;1855;50.934;6.958;2023-02-07T14:08:57;21.70;23.20
3678;DHT22;1855;50.934;6.958;2023-02-07T14:11:33;22.10;23.30
3678;DHT22;1855;50.934;6.958;2023-02-07T14:14:05;21.90;23.30
3678;DHT22;1855;50.934;6.958;2023-02-07T14:16:47;20.70;23.80
3678;DHT22;1855;50.934;6.958;2023-02-07T14:19:14;20.20;24.20
3678;DHT22;1855;50.934;6.958;2023-02-07T14:21:42;19.90;24.40
3678;DHT22;1855;50.934;6.958;2023-02-07T14:24:30;19.90;24.10
3678;DHT22;1855;50.934;6.958;2023-02-07T14:27:03;18.80;24.80
3678;DHT22;1855;50.934;6.958;2023-02-07T14:30:13;17.80;25.40
3678;DHT22;1855;50.934;6.958;2023-02-07T14:35:32;17.80;25.60
3678;DHT22;1855;50.934;6.958;2023-02-07T14:40:52;17.50;25.70
3678;DHT22;1855;50.934;6.958;2023-02-07T14:43:29;17.90;25.90
3678;DHT22;1855;50.934;6.958;2023-02-07T14:46:03;18.20;26.00
3678;DHT22;1855;50.934;6.958;2023-02-07T14:48:36;18.00;26.20
3678;DHT22;1855;50.934;6.958;2023-02-07T14:51:11;17.80;25.90
3678;DHT22;1855;50.934;6.958;2023-02-07T14:53:39;16.70;27.20
3678;DHT22;1855;50.934;6.958;2023-02-07T14:56:11;17.00;26.80
3678;DHT22;1855;50.934;6.958;2023-02-07T14:58:44;17.90;26.60
3678;DHT22;1855;50.934;6.958;2023-02-07T15:01:15;18.70;25.60
3678;DHT22;1855;50.934;6.958;2023-02-07T15:03:44;18.10;25.80
3678;DHT22;1855;50.934;6.958;2023-02-07T15:06:17;17.20;26.10
3678;DHT22;1855;50.934;6.958;2023-02-07T15:08:55;16.40;26.30
3678;DHT22;1855;50.934;6.958;2023-02-07T15:11:23;15.20;27.30
3678;DHT22;1855;50.934;6.958;2023-02-07T15:13:54;14.00;28.40
3678;DHT22;1855;50.934;6.958;2023-02-07T15:16:23;13.30;29.10
3678;DHT22;1855;50.934;6.958;2023-02-07T15:18:53;12.50;29.70
3678;DHT22;1855;50.934;6.958;2023-02-07T15:21:23;12.30;30.50
3678;DHT22;1855;50.934;6.958;2023-02-07T15:23:57;11.90;30.70
3678;DHT22;1855;50.934;6.958;2023-02-07T15:26:25;11.40;30.90
3678;DHT22;1855;50.934;6.958;2023-02-07T15:29:02;11.00;31.40
3678;DHT22;1855;50.934;6.958;2023-02-07T15:31:30;11.20;31.90
3678;DHT22;1855;50.934;6.958;2023-02-07T15:34:05;11.10;32.00
3678;DHT22;1855;50.934;6.958;2023-02-07T15:36:39;10.40;33.20
3678;DHT22;1855;50.934;6.958;2023-02-07T15:39:13;10.40;33.20
3678;DHT22;1855;50.934;6.958;2023-02-07T15:41:40;10.30;33.40
3678;DHT22;1855;50.934;6.958;2023-02-07T15:44:19;10.40;32.80
3678;DHT22;1855;50.934;6.958;2023-02-07T15:46:48;10.20;33.10
3678;DHT22;1855;50.934;6.958;2023-02-07T15:49:30;10.10;33.50
3678;DHT22;1855;50.934;6.958;2023-02-07T15:52:01;10.00;33.60
3678;DHT22;1855;50.934;6.958;2023-02-07T15:54:30;10.40;33.20
3678;DHT22;1855;50.934;6.958;2023-02-07T15:56:59;10.70;33.70
3678;DHT22;1855;50.934;6.958;2023-02-07T15:59:29;10.70;33.00
3678;DHT22;1855;50.934;6.958;2023-02-07T16:02:00;10.60;32.80
3678;DHT22;1855;50.934;6.958;2023-02-07T16:04:29;10.00;33.30
3678;DHT22;1855;50.934;6.958;2023-02-07T16:06:59;9.30;34.60
3678;DHT22;1855;50.934;6.958;2023-02-07T16:09:37;8.60;35.60
3678;DHT22;1855;50.934;6.958;2023-02-07T16:12:30;7.90;36.50
3678;DHT22;1855;50.934;6.958;2023-02-07T16:15:01;7.30;38.30
3678;DHT22;1855;50.934;6.958;2023-02-07T16:17:39;6.80;38.80
3678;DHT22;1855;50.934;6.958;2023-02-07T16:20:12;6.50;39.70
3678;DHT22;1855;50.934;6.958;2023-02-07T16:22:39;6.20;40.80
3678;DHT22;1855;50.934;6.958;2023-02-07T16:25:13;6.00;41.00
3678;DHT22;1855;50.934;6.958;2023-02-07T16:27:43;5.80;41.90
3678;DHT22;1855;50.934;6.958;2023-02-07T16:30:14;5.50;42.10
3678;DHT22;1855;50.934;6.958;2023-02-07T16:32:42;5.40;43.00
3678;DHT22;1855;50.934;6.958;2023-02-07T16:35:15;5.30;43.10
3678;DHT22;1855;50.934;6.958;2023-02-07T16:37:42;5.20;43.60
3678;DHT22;1855;50.934;6.958;2023-02-07T16:40:11;5.10;44.60